Terminal Aerodrome Forecast
Issued by NWS

Current Version | Previous Version | Graphics & Text | Print | Product List | Glossary On
Versions: 1 2 3 4 5 6 7 8 9 10 11 12 13 14 15 16 17 18 19 20
000
FTUS41 KILN 260532
TAFLUK
TAF
KLUK 260532Z 2606/2706 00000KT P6SM BKN050
     FM260900 00000KT 4SM BR SCT050
      TEMPO 2609/2611 1SM BR
     FM261400 35005KT P6SM BKN050
     FM262200 VRB03KT P6SM SCT050
     FM270400 00000KT P6SM BKN050=

USA.gov is the U.S. government's official web portal to all federal, state and local government web resources and services.